createdAt,value
2018-05-06T00:02:23.249Z,97388.97
2018-05-06T00:04:51.168Z,97397.89
2018-05-06T00:07:19.037Z,97388.98
2018-05-06T00:09:46.912Z,97395.77
2018-05-06T00:12:14.784Z,97399.61
2018-05-06T00:14:42.326Z,97400.88
2018-05-06T00:17:10.195Z,97403.41
2018-05-06T00:19:38.728Z,97404.27
2018-05-06T00:22:06.539Z,97401.28
2018-05-06T00:24:34.306Z,97408.94
2018-05-06T00:27:02.184Z,97400.42
2018-05-06T00:29:29.893Z,97403.41
2018-05-06T00:31:57.872Z,97409.34
2018-05-06T00:34:25.762Z,97406.80
2018-05-06T00:36:53.615Z,97405.92
2018-05-06T00:39:21.476Z,97408.89
2018-05-06T00:41:49.161Z,97404.23
2018-05-06T00:44:17.000Z,97405.91
2018-05-06T00:46:44.869Z,97411.01
2018-05-06T00:49:12.710Z,97412.70
2018-05-06T00:51:40.571Z,97415.63
2018-05-06T00:54:20.228Z,97422.00
2018-05-06T00:56:48.083Z,97413.93
2018-05-06T00:59:16.004Z,97425.37
2018-05-06T01:01:43.808Z,97417.33
2018-05-06T01:04:11.657Z,97424.52
2018-05-06T01:06:39.518Z,97424.95
2018-05-06T01:09:07.345Z,97423.67
2018-05-06T01:11:35.171Z,97424.92
2018-05-06T01:14:03.011Z,97422.78
2018-05-06T01:16:30.922Z,97429.14
2018-05-06T01:18:58.689Z,97430.41
2018-05-06T01:21:26.575Z,97427.02
2018-05-06T01:23:54.216Z,97427.84
2018-05-06T01:26:22.016Z,97428.70
2018-05-06T01:28:50.004Z,97423.57
2018-05-06T01:31:17.962Z,97421.03
2018-05-06T01:33:45.743Z,97419.33
2018-05-06T01:36:14.870Z,97421.02
2018-05-06T01:38:42.812Z,97410.39
2018-05-06T01:41:10.701Z,97406.14
2018-05-06T01:43:38.515Z,97406.97
2018-05-06T01:46:06.318Z,97404.41
2018-05-06T01:48:34.180Z,97408.67
2018-05-06T01:51:01.922Z,97410.36
2018-05-06T01:53:29.769Z,97403.98
2018-05-06T01:55:57.695Z,97405.23
2018-05-06T01:58:25.543Z,97412.02
2018-05-06T02:00:53.521Z,97398.84
2018-05-06T02:03:21.187Z,97404.38
2018-05-06T02:05:49.043Z,97405.22
2018-05-06T02:08:16.904Z,97403.09
2018-05-06T02:10:44.705Z,97397.98
2018-05-06T02:13:12.552Z,97392.45
2018-05-06T02:15:40.328Z,97399.69
2018-05-06T02:18:08.255Z,97399.27
2018-05-06T02:20:36.110Z,97398.81
2018-05-06T02:23:03.989Z,97397.92
2018-05-06T02:25:31.864Z,97395.36
2018-05-06T02:27:59.736Z,97396.59
2018-05-06T02:30:27.589Z,97397.42
2018-05-06T02:32:55.453Z,97402.06
2018-05-06T02:35:23.347Z,97405.44
2018-05-06T02:37:51.251Z,97401.16
2018-05-06T02:40:19.210Z,97403.70
2018-05-06T02:42:46.982Z,97392.23
2018-05-06T02:45:14.868Z,97403.27
2018-05-06T02:47:42.551Z,97407.49
2018-05-06T02:50:10.367Z,97404.49
2018-05-06T02:52:38.286Z,97407.49
2018-05-06T02:55:06.129Z,97403.70
2018-05-06T02:57:33.997Z,97405.41
2018-05-06T03:00:01.858Z,97402.84
2018-05-06T03:02:29.732Z,97398.17
2018-05-06T03:04:57.583Z,97393.06
2018-05-06T03:07:25.452Z,97388.81
2018-05-06T03:09:53.304Z,97384.98
2018-05-06T03:12:21.182Z,97396.00
2018-05-06T03:14:49.018Z,97398.53
2018-05-06T03:17:16.828Z,97389.97
2018-05-06T03:19:44.732Z,97398.41
2018-05-06T03:22:12.532Z,97403.89
2018-05-06T03:24:40.431Z,97401.72
2018-05-06T03:27:08.287Z,97402.53
2018-05-06T03:29:36.120Z,97399.50
2018-05-06T03:32:03.944Z,97399.90
2018-05-06T03:34:31.768Z,97399.89
2018-05-06T03:36:59.629Z,97400.28
2018-05-06T03:39:27.538Z,97402.80
2018-05-06T03:41:55.118Z,97437.12
2018-05-06T03:44:22.961Z,97405.75
2018-05-06T03:46:50.796Z,97415.88
2018-05-06T03:49:18.607Z,97417.16
2018-05-06T03:51:46.486Z,97423.47
2018-05-06T03:54:14.079Z,97429.39
2018-05-06T03:57:02.388Z,97435.33
2018-05-06T04:02:40.331Z,97440.41
2018-05-06T04:05:09.994Z,97439.53
2018-05-06T04:07:39.375Z,97444.16
2018-05-06T04:10:07.802Z,97434.39
2018-05-06T04:12:37.281Z,97437.78
2018-05-06T04:15:05.654Z,97439.89
2018-05-06T04:17:34.915Z,97441.19
2018-05-06T04:20:04.232Z,97442.88
2018-05-06T04:22:32.267Z,97448.84
2018-05-06T04:25:01.397Z,97455.63
2018-05-06T04:27:30.508Z,97453.52
2018-05-06T04:29:59.697Z,97456.06
2018-05-06T04:32:29.645Z,97461.20
2018-05-06T04:34:58.792Z,97458.22
2018-05-06T04:37:26.862Z,97453.17
2018-05-06T04:39:56.659Z,97447.70
2018-05-06T04:42:25.585Z,97457.45
2018-05-06T04:44:54.617Z,97465.13
2018-05-06T04:47:22.872Z,97467.67
2018-05-06T04:49:52.974Z,97469.41
2018-05-06T04:52:22.170Z,97457.98
2018-05-06T04:54:51.184Z,97462.66
2018-05-06T04:57:20.106Z,97458.86
2018-05-06T04:59:50.721Z,97453.79
2018-05-06T05:02:19.902Z,97458.52
2018-05-06T05:04:49.110Z,97462.81
2018-05-06T05:07:18.230Z,97453.94
2018-05-06T05:09:47.396Z,97457.78
2018-05-06T05:12:16.539Z,97451.95
2018-05-06T05:14:45.720Z,97458.75
2018-05-06T05:17:14.944Z,97461.78
2018-05-06T05:19:45.275Z,97464.78
2018-05-06T05:22:14.266Z,97467.39
2018-05-06T05:24:43.814Z,97461.45
2018-05-06T05:27:12.071Z,97461.52
2018-05-06T05:29:41.237Z,97458.98
2018-05-06T05:32:10.228Z,97459.89
2018-05-06T05:34:38.391Z,97464.56
2018-05-06T05:37:06.907Z,97469.70
2018-05-06T05:39:35.877Z,97464.20
2018-05-06T05:42:05.887Z,97461.70
2018-05-06T05:44:36.704Z,97466.00
2018-05-06T05:47:05.141Z,97462.66
2018-05-06T05:49:33.746Z,97471.20
2018-05-06T05:52:02.907Z,97476.31
2018-05-06T05:54:32.238Z,97471.21
2018-05-06T05:57:02.852Z,97478.04
2018-05-06T05:59:31.124Z,97473.39
2018-05-06T06:02:01.161Z,97481.07
2018-05-06T06:04:30.467Z,97487.48
2018-05-06T06:06:59.645Z,97489.64
2018-05-06T06:09:28.751Z,97487.14
2018-05-06T06:11:57.763Z,97491.87
2018-05-06T06:14:26.960Z,97492.30
2018-05-06T06:16:55.942Z,97490.61
2018-05-06T06:19:25.150Z,97493.20
2018-05-06T06:21:55.053Z,97495.34
2018-05-06T06:24:24.074Z,97498.30
2018-05-06T06:26:53.190Z,97494.95
2018-05-06T06:29:23.201Z,97490.27
2018-05-06T06:31:51.573Z,97491.58
2018-05-06T06:34:20.580Z,97490.30
2018-05-06T06:36:49.790Z,97486.48
2018-05-06T06:39:19.100Z,97491.59
2018-05-06T06:41:48.389Z,97488.61
2018-05-06T06:44:17.194Z,97482.66
2018-05-06T06:46:46.359Z,97477.99
2018-05-06T06:49:14.433Z,97483.10
2018-05-06T06:51:43.861Z,97482.25
2018-05-06T06:54:12.242Z,97479.73
2018-05-06T06:56:40.865Z,97489.53
2018-05-06T06:59:10.232Z,97479.72
2018-05-06T07:01:39.226Z,97480.14
2018-05-06T07:04:08.300Z,97479.69
2018-05-06T07:06:38.274Z,97473.27
2018-05-06T07:09:07.350Z,97474.52
2018-05-06T07:11:36.753Z,97469.83
2018-05-06T07:14:07.105Z,97471.48
2018-05-06T07:16:36.289Z,97479.17
2018-05-06T07:19:05.598Z,97478.72
2018-05-06T07:21:35.000Z,97479.96
2018-05-06T07:24:04.073Z,97482.91
2018-05-06T07:26:31.956Z,97483.30
2018-05-06T07:29:00.303Z,97480.30
2018-05-06T07:31:29.343Z,97475.16
2018-05-06T07:33:58.769Z,97479.83
2018-05-06T07:36:28.368Z,97475.95
2018-05-06T07:38:58.302Z,97475.48
2018-05-06T07:41:26.757Z,97475.41
2018-05-06T07:43:56.090Z,97469.38
2018-05-06T07:46:24.540Z,97468.11
2018-05-06T07:48:53.522Z,97470.64
2018-05-06T07:51:23.544Z,97465.45
2018-05-06T07:53:53.814Z,97459.80
2018-05-06T07:56:22.904Z,97468.74
2018-05-06T07:58:51.536Z,97467.45
2018-05-06T08:01:21.469Z,97469.96
2018-05-06T08:03:50.573Z,97459.63
2018-05-06T08:06:18.897Z,97452.71
2018-05-06T08:08:47.964Z,97459.88
2018-05-06T08:11:16.367Z,97456.72
2018-05-06T08:13:44.742Z,97464.75
2018-05-06T08:16:14.167Z,97458.28
2018-05-06T08:18:44.055Z,97455.16
2018-05-06T08:21:13.152Z,97452.16
2018-05-06T08:23:41.641Z,97456.37
2018-05-06T08:26:11.601Z,97454.34
2018-05-06T08:28:40.700Z,97453.42
2018-05-06T08:31:09.678Z,97452.10
2018-05-06T08:33:38.320Z,97454.22
2018-05-06T08:36:06.825Z,97443.74
2018-05-06T08:38:35.413Z,97445.27
2018-05-06T08:41:04.497Z,97441.89
2018-05-06T08:43:32.383Z,97444.47
2018-05-06T08:46:02.573Z,97445.31
2018-05-06T08:48:30.892Z,97449.08
2018-05-06T08:50:59.969Z,97441.36
2018-05-06T08:53:30.057Z,97436.89
2018-05-06T08:55:57.816Z,97435.84
2018-05-06T08:58:27.092Z,97437.41
2018-05-06T09:00:56.192Z,97440.23
2018-05-06T09:03:25.264Z,97434.06
2018-05-06T09:05:54.762Z,97431.87
2018-05-06T09:08:22.985Z,97431.02
2018-05-06T09:10:51.531Z,97429.21
2018-05-06T09:13:19.782Z,97421.31
2018-05-06T09:15:50.053Z,97432.80
2018-05-06T09:18:18.471Z,97435.38
2018-05-06T09:20:47.523Z,97426.70
2018-05-06T09:23:16.651Z,97429.55
2018-05-06T09:25:45.770Z,97425.20
2018-05-06T09:28:15.053Z,97432.20
2018-05-06T09:30:43.340Z,97430.28
2018-05-06T09:33:11.725Z,97424.93
2018-05-06T09:35:41.029Z,97429.72
2018-05-06T09:38:10.336Z,97427.87
2018-05-06T09:40:39.747Z,97424.36
2018-05-06T09:43:09.758Z,97425.87
2018-05-06T09:45:37.708Z,97426.19
2018-05-06T09:48:07.036Z,97430.38
2018-05-06T09:50:36.168Z,97427.05
2018-05-06T09:53:04.723Z,97422.28
2018-05-06T09:55:33.924Z,97426.03
2018-05-06T09:58:10.182Z,97419.41
2018-05-06T10:00:40.175Z,97412.19
2018-05-06T10:03:09.199Z,97419.77
2018-05-06T10:05:38.298Z,97417.27
2018-05-06T10:08:07.539Z,97408.05
2018-05-06T10:10:36.652Z,97407.45
2018-05-06T10:13:05.796Z,97410.69
2018-05-06T10:15:36.869Z,97401.72
2018-05-06T10:18:06.168Z,97398.66
2018-05-06T10:20:34.744Z,97399.81
2018-05-06T10:23:03.942Z,97394.70
2018-05-06T10:25:33.139Z,97407.89
2018-05-06T10:28:01.455Z,97394.44
2018-05-06T10:30:31.268Z,97387.19
2018-05-06T10:32:59.523Z,97398.45
2018-05-06T10:35:27.678Z,97387.58
2018-05-06T10:37:55.961Z,97394.95
2018-05-06T10:43:03.898Z,97385.39
2018-05-06T10:45:33.086Z,97388.17
2018-05-06T10:48:02.281Z,97381.81
2018-05-06T10:50:31.957Z,97383.77
2018-05-06T10:53:00.989Z,97376.26
2018-05-06T10:55:30.136Z,97376.41
2018-05-06T10:57:59.523Z,97371.34
2018-05-06T11:00:28.311Z,97367.23
2018-05-06T11:02:56.906Z,97367.80
2018-05-06T11:05:28.117Z,97357.77
2018-05-06T11:07:57.170Z,97365.89
2018-05-06T11:10:27.642Z,97366.77
2018-05-06T11:12:56.996Z,97367.20
2018-05-06T11:15:25.360Z,97364.47
2018-05-06T11:17:54.053Z,97362.41
2018-05-06T11:20:24.774Z,97361.40
2018-05-06T11:22:53.632Z,97355.16
2018-05-06T11:25:22.772Z,97358.41
2018-05-06T11:27:51.675Z,97353.44
2018-05-06T11:30:20.391Z,97344.67
2018-05-06T11:32:50.021Z,97361.26
2018-05-06T11:35:19.360Z,97346.30
2018-05-06T11:37:48.698Z,97345.05
2018-05-06T11:40:18.629Z,97352.44
2018-05-06T11:42:48.791Z,97344.14
2018-05-06T11:45:17.008Z,97346.72
2018-05-06T11:47:46.530Z,97345.43
2018-05-06T11:50:15.707Z,97345.61
2018-05-06T11:52:45.642Z,97349.75
2018-05-06T11:55:14.817Z,97345.80
2018-05-06T11:57:45.519Z,97340.69
2018-05-06T12:00:14.460Z,97338.72
2018-05-06T12:02:43.553Z,97334.60
2018-05-06T12:05:11.753Z,97336.53
2018-05-06T12:07:40.732Z,97330.48
2018-05-06T12:10:10.159Z,97330.25
2018-05-06T12:12:39.011Z,97333.29
2018-05-06T12:15:08.145Z,97334.52
2018-05-06T12:17:38.084Z,97327.80
2018-05-06T12:20:07.277Z,97326.38
2018-05-06T12:22:35.348Z,97320.13
2018-05-06T12:25:04.032Z,97326.03
2018-05-06T12:27:32.205Z,97322.09
2018-05-06T12:30:00.802Z,97317.64
2018-05-06T12:32:30.310Z,97315.19
2018-05-06T12:34:59.881Z,97311.25
2018-05-06T12:37:29.018Z,97320.81
2018-05-06T12:39:58.020Z,97317.36
2018-05-06T12:42:26.284Z,97314.75
2018-05-06T12:44:54.883Z,97312.01
2018-05-06T12:47:24.175Z,97318.72
2018-05-06T12:49:55.084Z,97313.92
2018-05-06T12:52:24.177Z,97307.48
2018-05-06T12:54:54.425Z,97304.98
2018-05-06T12:57:23.634Z,97296.05
2018-05-06T12:59:51.865Z,97295.87
2018-05-06T13:02:20.845Z,97303.56
2018-05-06T13:04:49.214Z,97304.99
2018-05-06T13:07:18.480Z,97302.33
2018-05-06T13:09:48.433Z,97287.31
2018-05-06T13:12:18.392Z,97286.94
2018-05-06T13:14:47.540Z,97290.64
2018-05-06T13:17:16.752Z,97275.86
2018-05-06T13:19:45.843Z,97277.86
2018-05-06T13:22:15.860Z,97273.75
2018-05-06T13:24:44.952Z,97266.53
2018-05-06T13:27:13.472Z,97272.52
2018-05-06T13:29:41.877Z,97270.86
2018-05-06T13:32:11.661Z,97269.94
2018-05-06T13:34:40.969Z,97265.77
2018-05-06T13:37:09.562Z,97268.06
2018-05-06T13:39:38.753Z,97262.60
2018-05-06T13:42:08.057Z,97262.17
2018-05-06T13:44:36.506Z,97261.59
2018-05-06T13:47:05.612Z,97255.24
2018-05-06T13:49:34.856Z,97252.65
2018-05-06T13:52:02.979Z,97254.86
2018-05-06T13:54:31.816Z,97256.22
2018-05-06T13:57:01.823Z,97250.66
2018-05-06T13:59:33.595Z,97246.02
2018-05-06T14:02:02.602Z,97247.78
2018-05-06T14:04:31.942Z,97245.77
2018-05-06T14:07:01.107Z,97235.48
2018-05-06T14:09:30.283Z,97246.44
2018-05-06T14:11:59.180Z,97237.52
2018-05-06T14:14:28.407Z,97224.13
2018-05-06T14:16:58.201Z,97227.45
2018-05-06T14:19:27.624Z,97223.06
2018-05-06T14:21:56.916Z,97226.20
2018-05-06T14:24:26.193Z,97229.23
2018-05-06T14:26:54.700Z,97224.94
2018-05-06T14:29:23.670Z,97221.45
2018-05-06T14:31:52.101Z,97220.66
2018-05-06T14:34:21.195Z,97218.87
2018-05-06T14:36:49.592Z,97211.36
2018-05-06T14:39:18.749Z,97214.84
2018-05-06T14:41:47.704Z,97213.23
2018-05-06T14:44:16.995Z,97209.58
2018-05-06T14:46:57.715Z,97212.03
2018-05-06T14:49:26.818Z,97211.28
2018-05-06T14:51:55.206Z,97216.42
2018-05-06T14:54:25.344Z,97212.98
2018-05-06T14:56:57.310Z,97210.45
2018-05-06T14:59:26.416Z,97214.19
2018-05-06T15:01:56.721Z,97208.55
2018-05-06T15:04:25.925Z,97212.25
2018-05-06T15:06:55.788Z,97210.50
2018-05-06T15:09:26.498Z,97201.99
2018-05-06T15:11:59.117Z,97201.67
2018-05-06T15:14:39.501Z,97203.62
2018-05-06T15:17:09.761Z,97199.05
2018-05-06T15:19:38.220Z,97193.59
2018-05-06T15:22:08.262Z,97191.59
2018-05-06T15:24:39.072Z,97195.22
2018-05-06T15:27:10.749Z,97188.83
2018-05-06T16:53:44.074Z,97160.20
2018-05-06T16:56:18.728Z,97167.47
2018-05-06T16:58:49.258Z,97161.98
2018-05-06T17:01:17.422Z,97156.89
2018-05-06T17:03:45.577Z,97159.52
2018-05-06T17:06:13.668Z,97160.05
2018-05-06T17:08:42.547Z,97160.73
2018-05-06T17:11:11.319Z,97159.17
2018-05-06T17:13:40.109Z,97161.45
2018-05-06T17:16:08.885Z,97164.01
2018-05-06T17:18:37.046Z,97161.05
2018-05-06T17:21:07.663Z,97162.39
2018-05-06T17:23:37.026Z,97160.77
2018-05-06T17:26:06.064Z,97163.55
2018-05-06T17:28:34.891Z,97158.97
2018-05-06T17:31:04.462Z,97160.00
2018-05-06T17:33:33.395Z,97164.09
2018-05-06T17:36:02.256Z,97164.11
2018-05-06T17:38:30.391Z,97170.63
2018-05-06T17:40:58.499Z,97163.48
2018-05-06T17:43:27.412Z,97162.30
2018-05-06T17:45:55.447Z,97167.63
2018-05-06T17:48:23.505Z,97171.13
2018-05-06T17:50:51.621Z,97171.28
2018-05-06T17:53:20.380Z,97168.88
2018-05-06T17:55:49.194Z,97172.47
2018-05-06T17:58:17.207Z,97168.80
2018-05-06T18:00:45.975Z,97174.13
2018-05-06T18:03:14.748Z,97168.73
2018-05-06T18:05:42.809Z,97178.78
2018-05-06T18:08:10.855Z,97174.70
2018-05-06T18:10:39.567Z,97170.64
2018-05-06T18:13:08.439Z,97180.64
2018-05-06T18:15:37.144Z,97181.65
2018-05-06T18:18:05.284Z,97182.23
2018-05-06T18:20:33.373Z,97185.91
2018-05-06T18:23:01.456Z,97179.66
2018-05-06T18:25:29.508Z,97177.64
2018-05-06T18:27:58.308Z,97188.57
2018-05-06T18:30:26.403Z,97187.47
2018-05-06T18:32:54.064Z,97188.13
2018-05-06T18:35:22.839Z,97187.53
2018-05-06T18:37:52.353Z,97197.12
2018-05-06T18:40:21.210Z,97195.61
2018-05-06T18:42:49.959Z,97200.94
2018-05-06T18:45:18.711Z,97206.27
2018-05-06T18:47:47.448Z,97203.47
2018-05-06T18:50:15.723Z,97211.82
2018-05-06T18:52:44.992Z,97212.45
2018-05-06T18:55:13.972Z,97210.89
2018-05-06T18:57:42.711Z,97217.01
2018-05-06T19:00:11.467Z,97214.20
2018-05-06T19:02:40.216Z,97223.35
2018-05-06T19:05:07.933Z,97225.65
2018-05-06T19:07:36.699Z,97226.65
2018-05-06T19:10:04.969Z,97229.72
2018-05-06T19:12:33.748Z,97234.55
2018-05-06T19:16:03.495Z,97241.19
2018-05-06T19:18:31.285Z,97240.03
2018-05-06T19:20:58.916Z,97243.59
2018-05-06T19:23:26.705Z,97242.44
2018-05-06T19:25:54.577Z,97249.42
2018-05-06T19:28:22.444Z,97246.98
2018-05-06T19:30:50.326Z,97249.24
2018-05-06T19:33:18.219Z,97248.08
2018-05-06T19:35:46.067Z,97252.45
2018-05-06T19:38:13.884Z,97252.97
2018-05-06T19:40:41.792Z,97249.23
2018-05-06T19:43:09.718Z,97257.87
2018-05-06T19:45:37.596Z,97254.98
2018-05-06T19:48:05.510Z,97252.94
2018-05-06T19:50:33.359Z,97256.90
2018-05-06T19:53:01.245Z,97257.83
2018-05-06T19:55:29.054Z,97260.08
2018-05-06T19:57:56.938Z,97264.00
2018-05-06T20:00:24.787Z,97264.09
2018-05-06T20:02:52.689Z,97262.91
2018-05-06T20:05:20.489Z,97263.89
2018-05-06T20:07:48.339Z,97264.81
2018-05-06T20:10:16.252Z,97262.77
2018-05-06T20:12:44.153Z,97267.53
2018-05-06T20:15:12.005Z,97266.78
2018-05-06T20:17:39.848Z,97272.34
2018-05-06T20:20:07.748Z,97280.52
2018-05-06T20:22:35.623Z,97279.75
2018-05-06T20:25:03.525Z,97272.14
2018-05-06T20:27:31.393Z,97282.03
2018-05-06T20:29:59.162Z,97278.22
2018-05-06T20:32:27.028Z,97280.81
2018-05-06T20:34:54.812Z,97282.58
2018-05-06T20:37:22.612Z,97283.48
2018-05-06T20:39:50.494Z,97280.98
2018-05-06T20:42:18.291Z,97287.86
2018-05-06T20:44:46.192Z,97283.64
2018-05-06T20:47:13.944Z,97285.80
2018-05-06T20:49:41.796Z,97283.27
2018-05-06T20:52:09.573Z,97289.72
2018-05-06T20:54:37.397Z,97289.74
2018-05-06T20:57:05.193Z,97282.53
2018-05-06T20:59:32.983Z,97292.40
2018-05-06T21:02:00.874Z,97286.47
2018-05-06T21:04:28.770Z,97291.62
2018-05-06T21:06:56.683Z,97285.69
2018-05-06T21:09:24.454Z,97288.23
2018-05-06T21:11:52.412Z,97301.08
2018-05-06T21:14:20.268Z,97296.02
2018-05-06T21:16:48.092Z,97295.19
2018-05-06T21:19:15.970Z,97298.23
2018-05-06T21:21:43.764Z,97299.52
2018-05-06T21:24:11.708Z,97288.48
2018-05-06T21:26:39.487Z,97297.43
2018-05-06T21:29:07.006Z,97293.65
2018-05-06T21:31:34.957Z,97292.80
2018-05-06T21:34:02.823Z,97298.81
2018-05-06T21:36:30.734Z,97300.55
2018-05-06T21:38:58.611Z,97304.40
2018-05-06T21:41:27.429Z,97304.84
2018-05-06T21:43:55.265Z,97310.00
2018-05-06T21:46:23.158Z,97298.50
2018-05-06T21:48:51.014Z,97309.16
2018-05-06T21:51:18.875Z,97304.04
2018-05-06T21:53:46.711Z,97304.95
2018-05-06T21:56:15.502Z,97310.08
2018-05-06T21:58:43.350Z,97314.34
2018-05-06T22:01:12.153Z,97307.98
2018-05-06T22:03:39.997Z,97310.55
2018-05-06T22:06:07.887Z,97311.83
2018-05-06T22:08:35.788Z,97312.23
2018-05-06T22:11:03.644Z,97315.23
2018-05-06T22:13:31.409Z,97308.41
2018-05-06T22:15:59.310Z,97310.98
2018-05-06T22:18:27.080Z,97313.55
2018-05-06T22:20:55.527Z,97305.03
2018-05-06T22:23:23.420Z,97304.19
2018-05-06T22:25:51.263Z,97304.61
2018-05-06T22:28:19.016Z,97299.50
2018-05-06T22:30:46.722Z,97300.38
2018-05-06T22:33:14.573Z,97296.12
2018-05-06T22:35:42.483Z,97296.97
2018-05-06T22:38:10.321Z,97299.12
2018-05-06T22:40:38.210Z,97299.56
2018-05-06T22:43:05.979Z,97288.06
2018-05-06T22:45:33.701Z,97295.72
2018-05-06T22:48:01.462Z,97291.06
2018-05-06T22:50:29.329Z,97290.63
2018-05-06T22:52:57.192Z,97283.81
2018-05-06T22:55:25.060Z,97280.43
2018-05-06T22:57:52.620Z,97276.60
2018-05-06T23:00:20.478Z,97278.70
2018-05-06T23:02:48.355Z,97276.17
2018-05-06T23:05:16.136Z,97271.05
2018-05-06T23:07:44.008Z,97271.06
2018-05-06T23:10:11.818Z,97266.80
2018-05-06T23:12:40.307Z,97267.66
2018-05-06T23:15:08.009Z,97262.13
2018-05-06T23:17:35.856Z,97261.72
2018-05-06T23:20:03.758Z,97263.02
2018-05-06T23:35:42.099Z,97263.44
2018-05-06T23:38:11.363Z,97261.29
2018-05-06T23:40:40.592Z,97262.09
2018-05-06T23:43:09.487Z,97252.75
2018-05-06T23:45:38.349Z,97250.61
2018-05-06T23:48:06.087Z,97254.03
2018-05-06T23:50:34.828Z,97251.48
2018-05-06T23:53:05.139Z,97253.58
2018-05-06T23:55:35.081Z,97250.60
2018-05-06T23:58:03.767Z,97248.50
